Time;durP1;ratioP1;P1;durP2;ratioP2;P2;SDS_P1;SDS_P2;PMS_P1;PMS_P2;Temp;Humidity;BMP_temperature;BMP_pressure;BME280_temperature;BME280_humidity;BME280_pressure;Samples;Min_cycle;Max_cycle;Signal;HPM_P1;HPM_P2
2023/05/26 00:00:34;;;;;;;29.45;3.40;;;9.40;99.90;;;;;;4985476;28;20030;-90
2023/05/26 00:03:02;;;;;;;25.45;4.03;;;9.40;99.90;;;;;;4983418;28;20469;-90
2023/05/26 00:05:28;;;;;;;35.30;5.50;;;9.30;99.90;;;;;;4984206;28;20346;-91
2023/05/26 00:07:53;;;;;;;21.13;2.80;;;9.30;99.90;;;;;;4994412;28;20025;-90
2023/05/26 00:10:19;;;;;;;26.95;4.28;;;9.30;99.90;;;;;;4984162;28;20112;-90
2023/05/26 00:12:45;;;;;;;21.27;3.28;;;9.30;99.90;;;;;;4975287;28;20025;-90
2023/05/26 00:15:11;;;;;;;25.98;3.50;;;9.20;99.90;;;;;;4966832;28;20394;-90
2023/05/26 00:17:36;;;;;;;26.42;3.90;;;9.20;99.90;;;;;;4976375;28;20133;-91
2023/05/26 00:20:02;;;;;;;21.33;3.22;;;9.20;99.90;;;;;;4980353;28;20069;-90
2023/05/26 00:22:28;;;;;;;28.35;3.30;;;9.10;99.90;;;;;;4977981;28;20577;-89
2023/05/26 00:24:54;;;;;;;26.50;3.20;;;9.10;99.90;;;;;;4991731;28;20121;-90
2023/05/26 00:27:19;;;;;;;31.08;4.57;;;9.10;99.90;;;;;;4989373;28;20476;-90
2023/05/26 00:29:45;;;;;;;29.15;3.40;;;9.00;99.90;;;;;;4991349;28;20027;-91
2023/05/26 00:32:11;;;;;;;26.38;3.30;;;9.00;99.90;;;;;;4979261;28;20033;-91
2023/05/26 00:34:36;;;;;;;27.20;4.72;;;9.00;99.90;;;;;;4977687;28;20061;-90
2023/05/26 00:37:02;;;;;;;28.27;3.67;;;8.90;99.90;;;;;;4975038;28;20029;-90
2023/05/26 00:39:29;;;;;;;21.77;3.53;;;8.90;99.90;;;;;;4985542;28;20034;-90
2023/05/26 00:41:55;;;;;;;25.30;3.83;;;8.80;99.90;;;;;;5008603;28;20430;-90
2023/05/26 00:44:22;;;;;;;25.98;3.45;;;8.80;99.90;;;;;;4960954;28;20038;-90
2023/05/26 00:46:47;;;;;;;33.75;4.30;;;8.80;99.90;;;;;;4975872;28;20031;-90
2023/05/26 00:49:13;;;;;;;29.27;3.58;;;8.80;99.90;;;;;;4984569;28;20078;-90
2023/05/26 00:51:40;;;;;;;18.95;2.58;;;8.80;99.90;;;;;;4969585;28;20065;-90
2023/05/26 00:54:06;;;;;;;29.92;3.42;;;8.80;99.90;;;;;;4993266;28;20060;-90
2023/05/26 00:56:34;;;;;;;24.02;3.60;;;8.70;99.90;;;;;;4975427;28;20030;-90
2023/05/26 00:59:02;;;;;;;17.63;2.83;;;8.70;99.90;;;;;;4976070;28;20054;-90
2023/05/26 01:01:28;;;;;;;26.20;3.30;;;8.70;99.90;;;;;;4986175;28;20665;-90
2023/05/26 01:03:54;;;;;;;23.92;3.58;;;8.70;99.90;;;;;;4993162;28;20538;-90
2023/05/26 01:06:22;;;;;;;26.13;3.20;;;8.60;99.90;;;;;;4977396;28;20038;-90
2023/05/26 01:08:48;;;;;;;31.23;4.22;;;8.60;99.90;;;;;;4977107;28;20030;-90
2023/05/26 01:11:20;;;;;;;24.65;3.45;;;8.60;99.90;;;;;;4987993;28;20041;-90
2023/05/26 01:14:13;;;;;;;28.17;3.05;;;8.50;99.90;;;;;;4976820;28;20072;-90
2023/05/26 01:16:45;;;;;;;22.70;2.78;;;8.50;99.90;;;;;;4988482;28;20033;-91
2023/05/26 01:19:21;;;;;;;19.95;3.60;;;8.50;99.90;;;;;;4992655;28;20038;-89
2023/05/26 01:21:50;;;;;;;22.05;3.30;;;8.40;99.90;;;;;;5000926;28;20018;-90
2023/05/26 01:24:38;;;;;;;28.35;2.63;;;8.40;99.90;;;;;;4984260;28;20057;-90
2023/05/26 01:27:11;;;;;;;23.63;3.30;;;8.40;99.90;;;;;;4980741;28;20072;-90
2023/05/26 01:29:38;;;;;;;22.52;3.13;;;8.30;99.90;;;;;;4992267;28;20030;-90
2023/05/26 01:32:08;;;;;;;34.63;3.13;;;8.30;99.90;;;;;;4968523;28;20025;-90
2023/05/26 01:34:34;;;;;;;28.88;3.53;;;8.30;99.90;;;;;;4983656;28;20054;-90
2023/05/26 01:37:00;;;;;;;26.25;3.78;;;8.30;99.90;;;;;;4992139;28;20026;-90
2023/05/26 01:39:26;;;;;;;36.70;3.10;;;8.20;99.90;;;;;;4973682;28;20467;-90
2023/05/26 01:42:06;;;;;;;28.80;3.72;;;8.20;99.90;;;;;;4966024;28;20022;-90
2023/05/26 01:44:41;;;;;;;19.88;2.17;;;8.20;99.90;;;;;;4985487;28;20077;-91
2023/05/26 01:47:07;;;;;;;25.27;2.83;;;8.20;99.90;;;;;;4982476;28;20022;-90
2023/05/26 01:49:34;;;;;;;27.52;2.67;;;8.10;99.90;;;;;;4977148;28;20430;-90
2023/05/26 01:52:07;;;;;;;23.90;3.35;;;8.10;99.90;;;;;;4981686;28;20026;-90
2023/05/26 01:54:43;;;;;;;28.45;3.42;;;8.10;99.90;;;;;;4977785;28;20031;-90
2023/05/26 01:57:10;;;;;;;31.70;4.82;;;8.10;99.90;;;;;;4956942;28;20035;-90
2023/05/26 01:59:36;;;;;;;24.58;3.15;;;8.10;99.90;;;;;;4996690;28;20106;-90
2023/05/26 02:02:01;;;;;;;23.27;3.60;;;8.10;99.90;;;;;;5000789;28;20062;-90
2023/05/26 02:04:27;;;;;;;28.45;3.13;;;8.10;99.90;;;;;;4970988;28;20046;-90
2023/05/26 02:06:54;;;;;;;27.90;3.17;;;8.00;99.90;;;;;;4971276;28;20106;-91
2023/05/26 02:09:20;;;;;;;26.80;4.10;;;8.00;99.90;;;;;;4996258;28;20072;-90
2023/05/26 02:11:45;;;;;;;24.27;2.80;;;8.00;99.90;;;;;;4992178;28;20101;-91
2023/05/26 02:14:11;;;;;;;22.48;2.85;;;8.00;99.90;;;;;;4991988;28;20074;-90
2023/05/26 02:16:37;;;;;;;23.10;3.45;;;8.00;99.90;;;;;;4960724;28;20035;-90
2023/05/26 02:19:02;;;;;;;26.42;3.33;;;8.00;99.90;;;;;;4991979;28;20056;-90
2023/05/26 02:21:30;;;;;;;28.55;3.47;;;8.00;99.90;;;;;;4994076;28;20125;-90
2023/05/26 02:23:56;;;;;;;29.52;4.25;;;8.00;99.90;;;;;;4974514;28;20023;-90
2023/05/26 02:26:21;;;;;;;21.85;4.22;;;8.00;99.90;;;;;;4987196;28;20037;-91
2023/05/26 02:28:49;;;;;;;22.42;3.00;;;7.90;99.90;;;;;;4980044;28;20041;-90
2023/05/26 02:31:15;;;;;;;31.60;4.00;;;7.90;99.90;;;;;;4961345;28;20069;-89
2023/05/26 02:33:41;;;;;;;27.17;2.95;;;7.90;99.90;;;;;;4978429;28;20041;-90
2023/05/26 02:36:07;;;;;;;36.10;3.15;;;7.90;99.90;;;;;;5001624;28;20471;-90
2023/05/26 02:38:33;;;;;;;29.50;4.10;;;7.90;99.90;;;;;;4997942;28;20041;-90
2023/05/26 02:40:58;;;;;;;26.30;3.00;;;7.80;99.90;;;;;;4988890;28;20033;-91
2023/05/26 02:43:24;;;;;;;30.52;3.35;;;7.80;99.90;;;;;;4979830;28;20053;-90
2023/05/26 02:45:50;;;;;;;24.25;3.53;;;7.70;99.90;;;;;;4970528;28;20023;-90
2023/05/26 02:48:16;;;;;;;23.75;3.60;;;7.70;99.90;;;;;;4958475;28;20034;-90
2023/05/26 02:50:41;;;;;;;32.72;4.35;;;7.60;99.90;;;;;;4973487;28;20023;-90
2023/05/26 02:53:07;;;;;;;22.00;2.80;;;7.50;99.90;;;;;;4977687;28;20031;-90
2023/05/26 02:55:32;;;;;;;23.20;2.72;;;7.50;99.90;;;;;;4977836;28;20018;-90
2023/05/26 02:57:58;;;;;;;24.98;4.07;;;7.50;99.90;;;;;;5003285;28;20046;-90
2023/05/26 03:00:23;;;;;;;32.28;3.40;;;7.50;99.90;;;;;;4999447;28;20038;-90
2023/05/26 03:02:49;;;;;;;26.30;3.38;;;7.40;99.90;;;;;;4966351;28;20035;-90
2023/05/26 03:05:14;;;;;;;25.80;3.78;;;7.40;99.90;;;;;;4978998;28;20037;-90
2023/05/26 03:07:40;;;;;;;31.52;3.25;;;7.40;99.90;;;;;;4984366;28;20477;-90
2023/05/26 03:10:06;;;;;;;24.52;3.45;;;7.30;99.90;;;;;;4978802;28;20022;-90
2023/05/26 03:12:31;;;;;;;28.67;3.55;;;7.30;99.90;;;;;;4977357;28;20041;-91
2023/05/26 03:14:57;;;;;;;25.20;4.15;;;7.30;99.90;;;;;;4977224;28;20034;-90
2023/05/26 03:17:23;;;;;;;23.42;3.20;;;7.30;99.90;;;;;;4982705;28;20048;-89
2023/05/26 03:19:48;;;;;;;29.23;3.58;;;7.20;99.90;;;;;;4980920;28;20031;-90
2023/05/26 03:22:14;;;;;;;25.10;3.63;;;7.20;99.90;;;;;;5003477;28;20045;-90
2023/05/26 03:24:39;;;;;;;27.75;3.97;;;7.20;99.90;;;;;;4986064;28;20046;-90
2023/05/26 03:27:05;;;;;;;39.35;4.95;;;7.20;99.90;;;;;;4992937;28;20038;-90
2023/05/26 03:29:32;;;;;;;24.77;3.35;;;7.20;99.90;;;;;;4982148;28;20034;-90
2023/05/26 03:31:58;;;;;;;30.00;3.35;;;7.20;99.90;;;;;;4997006;28;20069;-90
2023/05/26 03:34:24;;;;;;;25.25;4.80;;;7.20;99.90;;;;;;4931256;28;1128057;-89
2023/05/26 03:36:49;;;;;;;40.83;4.30;;;7.20;99.90;;;;;;4978899;28;20593;-90
2023/05/26 03:39:16;;;;;;;23.27;2.72;;;7.20;99.90;;;;;;4989268;28;20046;-90
2023/05/26 03:41:41;;;;;;;17.35;2.15;;;7.10;99.90;;;;;;4990809;28;20026;-90
2023/05/26 03:44:07;;;;;;;25.05;3.72;;;7.10;99.90;;;;;;4979279;28;20030;-90
2023/05/26 03:46:33;;;;;;;18.52;2.97;;;7.10;99.90;;;;;;4975825;28;20034;-90
2023/05/26 03:48:59;;;;;;;30.27;3.70;;;7.10;99.90;;;;;;4960608;28;20395;-90
2023/05/26 03:51:24;;;;;;;26.85;3.78;;;7.10;99.90;;;;;;4971032;28;20034;-90
2023/05/26 03:53:50;;;;;;;34.63;3.50;;;7.10;99.90;;;;;;4980531;28;20029;-90
2023/05/26 03:56:15;;;;;;;28.48;3.85;;;7.10;99.90;;;;;;4969327;28;20038;-90
2023/05/26 03:58:41;;;;;;;35.72;3.72;;;7.00;99.90;;;;;;4958534;28;20035;-89
2023/05/26 04:01:07;;;;;;;25.13;3.22;;;7.00;99.90;;;;;;4968185;28;20077;-90
2023/05/26 04:03:33;;;;;;;27.42;3.20;;;7.00;99.90;;;;;;4997435;28;20496;-89
2023/05/26 04:05:59;;;;;;;24.38;3.47;;;7.10;99.90;;;;;;4990978;28;20057;-90
2023/05/26 04:08:26;;;;;;;25.00;3.70;;;7.10;99.90;;;;;;4971962;28;20034;-90
2023/05/26 04:10:51;;;;;;;29.30;3.25;;;7.10;99.90;;;;;;4974907;28;20023;-90
2023/05/26 04:13:17;;;;;;;26.95;3.50;;;7.10;99.90;;;;;;4961951;28;20113;-90
2023/05/26 04:15:43;;;;;;;19.75;3.58;;;7.20;99.90;;;;;;4981096;28;20026;-90
2023/05/26 04:18:08;;;;;;;21.27;3.20;;;7.20;99.90;;;;;;5005941;28;20104;-90
2023/05/26 04:20:34;;;;;;;22.13;3.90;;;7.20;99.90;;;;;;4994839;28;20076;-90
2023/05/26 04:22:59;;;;;;;25.35;3.30;;;7.20;99.90;;;;;;4991752;28;20478;-90
2023/05/26 04:25:25;;;;;;;34.40;4.47;;;7.20;99.90;;;;;;5005592;28;20107;-90
2023/05/26 04:27:56;;;;;;;32.08;4.10;;;7.20;99.90;;;;;;4996871;28;20042;-89
2023/05/26 04:30:22;;;;;;;25.63;3.75;;;7.20;99.90;;;;;;4997102;28;20069;-90
2023/05/26 04:32:48;;;;;;;27.25;3.35;;;7.30;99.90;;;;;;4987739;28;20036;-90
2023/05/26 04:35:13;;;;;;;21.85;3.60;;;7.40;99.90;;;;;;4977721;28;20486;-89
2023/05/26 04:37:40;;;;;;;28.42;4.07;;;7.50;99.90;;;;;;4994618;28;20042;-90
2023/05/26 04:40:09;;;;;;;24.13;3.33;;;7.50;99.90;;;;;;4975682;28;20025;-90
2023/05/26 04:42:35;;;;;;;26.30;4.18;;;7.70;99.90;;;;;;4965703;28;20034;-91
2023/05/26 04:45:02;;;;;;;25.38;3.08;;;7.70;99.90;;;;;;4978953;28;20462;-90
2023/05/26 04:47:32;;;;;;;25.75;3.20;;;7.80;99.90;;;;;;4977816;28;20045;-90
2023/05/26 04:50:01;;;;;;;27.85;3.20;;;7.90;99.90;;;;;;4977752;28;20026;-90
2023/05/26 04:52:27;;;;;;;34.65;4.25;;;8.00;99.90;;;;;;4986766;28;20030;-90
2023/05/26 04:54:53;;;;;;;31.98;4.32;;;8.10;99.90;;;;;;5000933;28;20037;-90
2023/05/26 04:57:22;;;;;;;27.52;3.83;;;8.10;99.90;;;;;;4978477;28;20058;-91
2023/05/26 04:59:47;;;;;;;28.10;3.20;;;8.30;99.90;;;;;;4975486;28;20121;-90
2023/05/26 05:02:13;;;;;;;29.13;3.92;;;8.30;99.90;;;;;;4972251;28;20159;-90
2023/05/26 05:04:52;;;;;;;30.20;3.10;;;8.40;99.90;;;;;;4965457;28;20038;-90
2023/05/26 05:07:18;;;;;;;33.03;4.47;;;8.50;99.90;;;;;;4976802;28;20098;-90
2023/05/26 05:09:44;;;;;;;34.47;3.95;;;8.50;99.90;;;;;;4970356;28;20058;-90
2023/05/26 05:12:10;;;;;;;19.98;2.88;;;8.70;99.90;;;;;;4986917;28;20373;-90
2023/05/26 05:14:36;;;;;;;22.35;2.92;;;8.80;99.90;;;;;;4976656;28;20025;-90
2023/05/26 05:17:02;;;;;;;21.58;3.10;;;9.10;99.90;;;;;;4967246;28;20027;-90
2023/05/26 05:19:28;;;;;;;23.63;3.50;;;9.40;99.90;;;;;;4969873;28;20037;-90
2023/05/26 05:21:54;;;;;;;24.33;3.72;;;9.80;99.90;;;;;;4973965;28;20053;-90
2023/05/26 05:24:19;;;;;;;25.20;3.50;;;10.10;99.90;;;;;;4984407;28;20066;-90
2023/05/26 05:26:45;;;;;;;25.48;2.85;;;10.30;99.90;;;;;;4970633;28;20034;-91
2023/05/26 05:29:11;;;;;;;23.02;3.58;;;10.60;99.90;;;;;;4989794;28;20105;-90
2023/05/26 05:31:39;;;;;;;22.33;3.00;;;10.70;99.90;;;;;;4986017;28;20026;-90
2023/05/26 05:34:04;;;;;;;24.58;2.70;;;10.90;99.90;;;;;;4991468;28;20089;-90
2023/05/26 05:36:31;;;;;;;19.52;3.45;;;11.10;99.90;;;;;;4965841;28;20814;-90
2023/05/26 05:38:57;;;;;;;24.85;3.58;;;11.30;99.90;;;;;;4957662;28;20463;-89
2023/05/26 05:41:22;;;;;;;31.90;3.35;;;11.40;99.90;;;;;;4957023;28;20047;-90
2023/05/26 05:43:48;;;;;;;14.13;2.95;;;11.30;99.90;;;;;;4969508;28;20113;-91
2023/05/26 05:46:13;;;;;;;37.03;5.15;;;11.30;99.90;;;;;;4987555;28;20033;-93
2023/05/26 05:48:42;;;;;;;32.88;5.15;;;11.30;99.90;;;;;;4981986;28;20035;-92
2023/05/26 05:51:07;;;;;;;24.63;3.15;;;11.20;99.90;;;;;;4970495;28;20391;-92
2023/05/26 05:53:33;;;;;;;29.58;3.92;;;11.20;99.90;;;;;;4985870;28;20034;-92
2023/05/26 05:55:58;;;;;;;26.48;3.72;;;11.10;99.90;;;;;;4983445;28;20030;-93
2023/05/26 05:58:24;;;;;;;27.23;3.40;;;11.10;99.90;;;;;;4981146;28;20069;-92
2023/05/26 06:00:50;;;;;;;31.13;3.65;;;11.10;99.90;;;;;;4978186;28;20058;-93
2023/05/26 06:03:15;;;;;;;32.67;2.90;;;11.00;99.90;;;;;;4976283;28;20030;-93
2023/05/26 06:05:41;;;;;;;26.13;3.05;;;11.00;99.90;;;;;;4974980;28;20022;-92
2023/05/26 06:08:06;;;;;;;27.15;3.80;;;11.00;99.90;;;;;;4977146;28;20038;-93
2023/05/26 06:10:32;;;;;;;26.00;3.88;;;11.00;99.90;;;;;;4970738;28;20467;-92
2023/05/26 06:12:57;;;;;;;24.45;3.22;;;10.90;99.90;;;;;;4973836;28;20026;-93
2023/05/26 06:15:23;;;;;;;24.15;3.47;;;10.90;99.90;;;;;;4978548;28;20099;-93
2023/05/26 06:17:48;;;;;;;24.17;3.35;;;10.90;99.90;;;;;;4985757;28;20037;-91
2023/05/26 06:20:14;;;;;;;26.90;2.45;;;10.90;99.90;;;;;;4992243;28;20146;-92
2023/05/26 06:22:40;;;;;;;24.65;3.60;;;10.90;99.90;;;;;;4981320;28;20045;-93
2023/05/26 06:25:06;;;;;;;27.45;3.33;;;10.90;99.90;;;;;;4978952;28;20022;-92
2023/05/26 06:27:32;;;;;;;22.30;2.95;;;10.90;99.90;;;;;;4983723;28;20088;-92
2023/05/26 06:29:57;;;;;;;30.40;3.42;;;10.90;99.90;;;;;;4978689;28;20097;-93
2023/05/26 06:32:23;;;;;;;19.88;2.55;;;10.90;99.90;;;;;;4988385;28;20109;-93
2023/05/26 06:34:48;;;;;;;27.08;3.83;;;10.90;99.90;;;;;;4987208;28;20050;-92
2023/05/26 06:37:20;;;;;;;29.77;3.35;;;10.90;99.90;;;;;;4966438;28;20035;-92
2023/05/26 06:39:45;;;;;;;34.30;4.23;;;10.90;99.90;;;;;;4954210;28;20046;-92
2023/05/26 06:42:11;;;;;;;21.30;2.92;;;11.00;99.90;;;;;;4947601;28;20409;-92
2023/05/26 06:44:36;;;;;;;23.25;3.63;;;11.10;99.90;;;;;;4952298;28;20035;-92
2023/05/26 06:47:02;;;;;;;29.75;4.38;;;11.10;99.90;;;;;;4949472;28;20519;-92
2023/05/26 06:49:28;;;;;;;32.70;4.68;;;11.20;99.90;;;;;;4946396;28;20039;-92
2023/05/26 06:51:53;;;;;;;23.02;3.45;;;11.40;99.90;;;;;;4945502;28;20086;-93
2023/05/26 06:54:19;;;;;;;21.48;2.78;;;11.60;99.90;;;;;;4952700;28;20032;-93
2023/05/26 06:56:45;;;;;;;25.05;3.40;;;11.80;99.90;;;;;;4963146;28;20035;-92
2023/05/26 06:59:10;;;;;;;30.27;4.00;;;11.90;99.90;;;;;;4948353;28;20066;-91
2023/05/26 07:01:36;;;;;;;25.63;3.63;;;12.10;99.90;;;;;;4949839;28;20047;-93
2023/05/26 07:04:02;;;;;;;18.95;2.63;;;12.10;99.90;;;;;;4953128;28;20031;-91
2023/05/26 07:06:27;;;;;;;22.23;3.20;;;12.10;99.90;;;;;;4948791;28;20062;-90
2023/05/26 07:08:53;;;;;;;23.38;3.40;;;12.10;99.90;;;;;;4943989;28;20032;-93
2023/05/26 07:11:18;;;;;;;19.30;3.40;;;12.10;99.90;;;;;;4939361;28;20038;-91
2023/05/26 07:13:45;;;;;;;29.27;3.15;;;12.20;99.90;;;;;;4957473;28;20034;-91
2023/05/26 07:16:10;;;;;;;22.05;3.50;;;12.20;99.90;;;;;;4968706;28;20405;-91
2023/05/26 07:18:36;;;;;;;19.42;3.70;;;12.40;99.90;;;;;;4942427;29;20090;-92
2023/05/26 07:21:02;;;;;;;23.70;3.30;;;12.50;99.90;;;;;;4974389;28;20019;-91
2023/05/26 07:23:27;;;;;;;20.95;3.50;;;12.50;99.90;;;;;;4962372;28;20122;-91
2023/05/26 07:25:53;;;;;;;24.35;3.38;;;12.50;99.90;;;;;;4961511;28;20037;-91
2023/05/26 07:28:19;;;;;;;25.83;3.08;;;12.50;99.90;;;;;;4960268;28;20027;-91
2023/05/26 07:30:44;;;;;;;21.65;3.95;;;12.50;99.90;;;;;;4956897;29;20480;-91
2023/05/26 07:33:11;;;;;;;20.02;3.47;;;12.60;99.90;;;;;;4950225;28;20412;-91
2023/05/26 07:35:36;;;;;;;22.90;3.40;;;12.60;99.90;;;;;;4947595;28;20062;-91
2023/05/26 07:38:03;;;;;;;25.02;3.45;;;12.70;99.90;;;;;;4949630;28;20043;-91
2023/05/26 07:40:34;;;;;;;23.67;3.35;;;12.60;99.90;;;;;;4940916;28;20035;-92
2023/05/26 07:42:59;;;;;;;21.65;4.35;;;12.60;99.90;;;;;;4946694;28;20040;-92
2023/05/26 07:45:25;;;;;;;23.38;3.35;;;12.70;99.90;;;;;;4951271;28;20118;-91
2023/05/26 07:47:51;;;;;;;20.25;3.55;;;12.70;99.90;;;;;;4954778;28;20038;-92
2023/05/26 07:50:16;;;;;;;24.27;2.90;;;12.70;99.90;;;;;;4950825;28;20108;-94
2023/05/26 07:52:42;;;;;;;22.45;3.22;;;12.70;99.90;;;;;;4948866;28;20027;-92
2023/05/26 07:55:07;;;;;;;29.60;4.82;;;12.70;99.90;;;;;;4948692;28;20042;-92
2023/05/26 07:57:33;;;;;;;18.50;2.60;;;12.80;99.90;;;;;;4966371;28;20650;-90
2023/05/26 07:59:58;;;;;;;19.25;2.75;;;12.80;99.90;;;;;;4950175;28;20836;-91
2023/05/26 08:02:24;;;;;;;19.88;3.03;;;12.80;99.90;;;;;;4941922;28;20110;-93
2023/05/26 08:04:50;;;;;;;22.88;5.00;;;12.90;99.90;;;;;;4945611;29;20122;-92
2023/05/26 08:07:16;;;;;;;20.50;3.63;;;13.00;99.90;;;;;;4949414;28;20031;-91
2023/05/26 08:09:41;;;;;;;24.75;3.45;;;13.10;99.90;;;;;;4960811;28;20027;-93
2023/05/26 08:12:07;;;;;;;22.05;3.72;;;13.10;99.90;;;;;;4943938;28;20035;-92
2023/05/26 08:14:33;;;;;;;19.40;2.63;;;13.10;99.90;;;;;;4948314;28;20028;-92
2023/05/26 08:16:59;;;;;;;20.35;2.85;;;13.30;99.90;;;;;;4948603;28;20031;-92
2023/05/26 08:19:24;;;;;;;24.63;3.25;;;13.40;99.90;;;;;;4950114;28;20046;-92
2023/05/26 08:21:50;;;;;;;21.67;3.55;;;13.50;99.90;;;;;;4946787;28;20106;-92
2023/05/26 08:24:16;;;;;;;21.70;4.18;;;13.50;99.90;;;;;;4945422;28;20031;-89
2023/05/26 08:26:41;;;;;;;22.95;3.08;;;13.60;99.90;;;;;;4944290;28;20035;-92
2023/05/26 08:29:09;;;;;;;21.63;3.05;;;13.50;99.90;;;;;;4946513;28;20027;-91
2023/05/26 08:31:35;;;;;;;19.65;2.47;;;13.70;99.90;;;;;;4962454;28;20388;-91
2023/05/26 08:34:01;;;;;;;13.50;2.72;;;13.80;99.90;;;;;;4949125;28;20054;-92
2023/05/26 08:36:45;;;;;;;;;;;;;;;;;;;;;
2023/05/26 08:39:15;;;;;;;22.45;2.85;;;14.00;99.90;;;;;;4953920;28;20487;-93
2023/05/26 08:41:59;;;;;;;17.63;2.20;;;14.00;99.90;;;;;;4955478;28;20027;-92
2023/05/26 08:44:31;;;;;;;16.83;2.67;;;14.10;99.90;;;;;;4946348;28;20027;-93
2023/05/26 08:47:12;;;;;;;14.80;2.38;;;14.20;99.90;;;;;;4946874;28;20407;-93
2023/05/26 08:50:05;;;;;;;19.23;2.80;;;14.20;99.90;;;;;;4966073;28;20039;-92
2023/05/26 08:52:41;;;;;;;18.38;2.75;;;14.30;99.90;;;;;;4946617;28;20027;-91
2023/05/26 08:55:08;;;;;;;19.00;2.92;;;14.20;99.90;;;;;;4947084;28;20134;-92
2023/05/26 08:57:34;;;;;;;26.20;3.00;;;14.30;99.90;;;;;;4950610;28;20043;-92
2023/05/26 09:00:02;;;;;;;19.13;2.85;;;14.30;99.90;;;;;;4945230;28;20029;-93
2023/05/26 09:02:27;;;;;;;20.35;3.35;;;14.40;99.90;;;;;;4939033;28;20106;-93
2023/05/26 09:04:53;;;;;;;19.17;3.40;;;14.40;99.90;;;;;;4942924;28;20027;-92
2023/05/26 09:07:19;;;;;;;16.05;2.78;;;14.40;99.90;;;;;;4944019;28;20035;-93
2023/05/26 09:09:45;;;;;;;16.25;2.45;;;14.50;99.90;;;;;;4942541;28;20046;-92
2023/05/26 09:12:12;;;;;;;22.20;2.85;;;14.50;99.20;;;;;;4949579;28;20032;-91
2023/05/26 09:14:39;;;;;;;15.77;2.70;;;14.50;99.20;;;;;;4939339;28;20110;-92
2023/05/26 09:17:05;;;;;;;14.00;2.45;;;14.60;99.40;;;;;;4941883;28;20471;-93
2023/05/26 09:19:34;;;;;;;23.70;3.10;;;14.80;99.80;;;;;;4957566;28;20047;-91
2023/05/26 09:22:08;;;;;;;20.90;3.35;;;15.00;99.20;;;;;;4946203;28;20031;-92
2023/05/26 09:24:46;;;;;;;16.95;2.65;;;15.20;98.60;;;;;;4942488;28;20100;-94
2023/05/26 09:27:20;;;;;;;19.40;3.75;;;15.30;98.80;;;;;;4956402;28;20046;-92
2023/05/26 09:29:54;;;;;;;13.73;2.50;;;15.40;97.50;;;;;;4951230;28;20020;-92
2023/05/26 09:32:27;;;;;;;16.38;2.67;;;15.40;97.70;;;;;;4950956;28;20035;-92
2023/05/26 09:34:55;;;;;;;14.57;2.78;;;15.50;97.80;;;;;;4942786;28;20040;-91
2023/05/26 09:37:32;;;;;;;14.68;2.38;;;15.60;96.90;;;;;;4944987;28;20395;-90
2023/05/26 09:40:08;;;;;;;18.33;3.45;;;15.70;96.40;;;;;;4943026;28;20399;-91
2023/05/26 09:42:45;;;;;;;16.90;2.80;;;15.80;96.40;;;;;;4972069;28;20096;-96
2023/05/26 09:45:10;;;;;;;20.15;3.17;;;15.80;94.90;;;;;;4947918;29;20027;-92
2023/05/26 09:47:36;;;;;;;13.75;2.85;;;15.80;95.30;;;;;;4945374;28;20086;-93
2023/05/26 09:50:06;;;;;;;18.52;3.08;;;15.80;94.60;;;;;;4947505;29;20428;-93
2023/05/26 09:52:36;;;;;;;18.00;4.13;;;15.80;95.00;;;;;;4954036;29;20011;-92
2023/05/26 09:55:02;;;;;;;14.88;2.53;;;16.00;95.60;;;;;;4948281;29;20070;-94
2023/05/26 09:57:28;;;;;;;14.98;2.55;;;16.20;95.20;;;;;;4952146;29;20083;-93
2023/05/26 09:59:56;;;;;;;17.65;2.90;;;16.40;94.80;;;;;;4952719;29;20027;-93
2023/05/26 10:02:24;;;;;;;17.65;3.50;;;16.40;93.50;;;;;;4953513;28;20030;-94
2023/05/26 10:04:51;;;;;;;22.02;3.22;;;16.30;92.40;;;;;;4966199;28;20031;-92
2023/05/26 10:07:18;;;;;;;17.88;2.60;;;16.20;92.70;;;;;;4948664;28;20070;-95
2023/05/26 10:09:51;;;;;;;16.73;2.67;;;16.30;92.70;;;;;;4947924;28;20028;-91
2023/05/26 10:12:19;;;;;;;14.80;2.80;;;16.30;92.40;;;;;;4942208;28;20111;-93
2023/05/26 10:14:45;;;;;;;14.93;3.13;;;16.40;91.60;;;;;;4957970;28;20065;-92
2023/05/26 10:17:11;;;;;;;16.13;2.50;;;16.40;91.70;;;;;;4945971;28;20566;-92
2023/05/26 10:19:36;;;;;;;14.05;2.53;;;16.50;91.10;;;;;;4947700;28;20127;-92
2023/05/26 10:22:13;;;;;;;18.02;3.33;;;16.50;90.40;;;;;;4947026;28;20023;-92
2023/05/26 10:24:43;;;;;;;9.88;2.10;;;16.50;90.40;;;;;;4943926;28;20027;-92
2023/05/26 10:27:33;;;;;;;13.88;1.83;;;16.50;90.10;;;;;;4959864;28;20062;-92
2023/05/26 10:30:11;;;;;;;16.50;2.50;;;16.60;90.20;;;;;;4944567;28;20050;-92
2023/05/26 10:33:03;;;;;;;15.00;3.05;;;16.70;89.40;;;;;;4947852;28;20032;-92
2023/05/26 10:35:33;;;;;;;14.70;2.67;;;16.80;87.90;;;;;;4939990;28;20110;-92
2023/05/26 10:38:01;;;;;;;15.63;2.60;;;16.80;86.90;;;;;;4949342;28;20047;-92
2023/05/26 10:40:30;;;;;;;11.10;2.25;;;16.70;86.60;;;;;;4969376;28;20027;-93
2023/05/26 10:43:01;;;;;;;17.98;3.70;;;16.70;87.00;;;;;;4956569;28;20023;-91
2023/05/26 10:45:32;;;;;;;16.27;2.40;;;16.80;88.20;;;;;;4943195;28;20024;-92
2023/05/26 10:48:05;;;;;;;13.82;2.75;;;16.90;87.20;;;;;;4952921;28;20035;-92
2023/05/26 10:50:59;;;;;;;14.02;2.03;;;17.00;85.00;;;;;;4943998;28;20848;-91
2023/05/26 10:53:46;;;;;;;18.65;2.50;;;17.00;85.00;;;;;;4952623;28;20023;-93
2023/05/26 10:56:14;;;;;;;15.35;2.38;;;17.00;83.20;;;;;;4947796;28;20030;-92
2023/05/26 10:58:45;;;;;;;10.98;2.42;;;17.00;83.60;;;;;;4956085;28;20043;-92
2023/05/26 11:01:12;;;;;;;10.02;1.83;;;17.10;83.30;;;;;;4948145;29;20084;-93
2023/05/26 11:03:42;;;;;;;16.38;2.50;;;17.20;82.00;;;;;;4949145;29;20027;-93
2023/05/26 11:06:10;;;;;;;15.10;2.85;;;17.20;81.40;;;;;;4961125;28;20591;-92
2023/05/26 11:08:50;;;;;;;16.05;2.22;;;17.30;81.40;;;;;;4950458;29;20358;-91
2023/05/26 11:11:29;;;;;;;14.02;3.08;;;17.40;79.80;;;;;;4953690;28;20039;-90
2023/05/26 11:14:10;;;;;;;10.85;2.13;;;17.40;79.30;;;;;;4953884;29;20035;-91
2023/05/26 11:16:39;;;;;;;13.68;2.53;;;17.40;77.40;;;;;;4947184;28;20371;-91
2023/05/26 11:19:08;;;;;;;16.10;2.45;;;17.40;74.90;;;;;;4960332;28;20047;-91
2023/05/26 11:21:35;;;;;;;11.02;2.17;;;17.40;74.60;;;;;;4962172;28;20038;-92
2023/05/26 11:24:02;;;;;;;11.65;1.63;;;17.40;73.00;;;;;;4970366;28;20031;-92
2023/05/26 11:26:32;;;;;;;14.15;1.52;;;17.50;73.50;;;;;;4957373;28;20117;-92
2023/05/26 11:29:01;;;;;;;11.40;1.70;;;17.60;73.70;;;;;;4957963;29;20066;-92
2023/05/26 11:31:27;;;;;;;15.15;2.20;;;17.70;72.80;;;;;;4956709;28;20122;-92
2023/05/26 11:33:54;;;;;;;13.93;2.65;;;17.80;70.80;;;;;;4948932;28;22306;-91
2023/05/26 11:36:21;;;;;;;13.43;2.10;;;17.80;70.40;;;;;;4962079;28;20035;-90
2023/05/26 11:38:50;;;;;;;11.55;1.98;;;17.80;70.40;;;;;;4954813;29;20126;-91
2023/05/26 11:41:16;;;;;;;14.15;1.80;;;17.90;69.70;;;;;;4955777;29;20035;-91
2023/05/26 11:43:44;;;;;;;16.77;2.78;;;17.90;69.10;;;;;;4965330;28;20031;-91
2023/05/26 11:46:15;;;;;;;17.90;2.10;;;18.00;69.70;;;;;;4945946;29;20035;-92
2023/05/26 11:48:42;;;;;;;8.95;1.90;;;18.10;68.60;;;;;;4948262;29;20032;-90
2023/05/26 11:51:10;;;;;;;11.10;1.55;;;18.10;68.40;;;;;;4947484;28;20039;-91
2023/05/26 11:53:38;;;;;;;9.52;1.63;;;18.20;68.90;;;;;;4943091;28;20036;-92
2023/05/26 11:56:06;;;;;;;11.40;1.70;;;18.30;65.50;;;;;;4944090;28;20113;-90
2023/05/26 11:58:33;;;;;;;10.82;1.70;;;18.30;65.70;;;;;;4958066;28;20515;-91
2023/05/26 12:01:03;;;;;;;10.00;2.03;;;18.30;65.50;;;;;;4954211;28;20036;-91
2023/05/26 12:03:33;;;;;;;11.20;2.00;;;18.40;66.10;;;;;;4943861;28;20045;-90
2023/05/26 12:06:21;;;;;;;11.85;1.50;;;18.40;64.00;;;;;;4948172;29;20027;-91
2023/05/26 12:08:58;;;;;;;12.20;2.10;;;18.40;64.20;;;;;;4946606;28;20031;-91
2023/05/26 12:11:33;;;;;;;11.45;1.77;;;18.50;65.00;;;;;;4953658;28;20053;-91
2023/05/26 12:14:03;;;;;;;16.48;2.20;;;18.50;65.70;;;;;;4948238;29;20084;-88
2023/05/26 12:16:41;;;;;;;10.82;1.95;;;18.60;66.00;;;;;;4947875;29;20034;-89
2023/05/26 12:19:12;;;;;;;9.07;1.20;;;18.80;64.40;;;;;;4953337;29;20031;-89
2023/05/26 12:21:50;;;;;;;11.63;1.60;;;18.80;64.10;;;;;;4946667;28;20527;-88
2023/05/26 12:24:29;;;;;;;13.10;1.95;;;18.80;64.10;;;;;;4956086;29;20034;-88
2023/05/26 12:26:55;;;;;;;7.25;1.60;;;18.90;64.60;;;;;;4956658;29;20391;-88
2023/05/26 12:29:20;;;;;;;13.55;1.75;;;18.90;63.20;;;;;;4955167;29;20139;-88
2023/05/26 12:31:51;;;;;;;12.73;2.00;;;18.90;63.40;;;;;;4957207;29;20039;-88
2023/05/26 12:34:27;;;;;;;14.52;2.13;;;18.90;64.10;;;;;;4955770;28;20129;-88
2023/05/26 12:36:52;;;;;;;11.95;2.55;;;19.00;65.00;;;;;;4955815;29;20031;-88
2023/05/26 12:39:18;;;;;;;10.65;1.55;;;19.10;63.90;;;;;;4959954;28;20103;-88
2023/05/26 12:41:47;;;;;;;10.60;1.48;;;19.20;62.00;;;;;;4956493;28;20122;-89
2023/05/26 12:44:14;;;;;;;11.20;1.80;;;19.20;62.70;;;;;;4956824;29;20027;-89
2023/05/26 12:46:41;;;;;;;12.00;1.88;;;19.30;62.80;;;;;;4947679;29;20028;-89